sensor_id;sensor_type;location;lat;lon;timestamp;P1;durP1;ratioP1;P2;durP2;ratioP2
16662;SDS011;8445;51.270;9.434;2022-12-18T00:01:06;44.70;;;23.10;;
16662;SDS011;8445;51.270;9.434;2022-12-18T00:03:46;44.10;;;22.17;;
16662;SDS011;8445;51.270;9.434;2022-12-18T00:06:13;49.70;;;23.20;;
16662;SDS011;8445;51.270;9.434;2022-12-18T00:08:40;49.13;;;22.70;;
16662;SDS011;8445;51.270;9.434;2022-12-18T00:11:06;43.00;;;22.93;;
16662;SDS011;8445;51.270;9.434;2022-12-18T00:13:33;46.10;;;23.57;;
16662;SDS011;8445;51.270;9.434;2022-12-18T00:16:03;44.37;;;22.97;;
16662;SDS011;8445;51.270;9.434;2022-12-18T00:18:30;47.37;;;23.80;;
16662;SDS011;8445;51.270;9.434;2022-12-18T00:20:58;48.03;;;23.80;;
16662;SDS011;8445;51.270;9.434;2022-12-18T00:23:25;50.37;;;23.30;;
16662;SDS011;8445;51.270;9.434;2022-12-18T00:25:51;43.23;;;23.27;;
16662;SDS011;8445;51.270;9.434;2022-12-18T00:28:17;47.93;;;23.47;;
16662;SDS011;8445;51.270;9.434;2022-12-18T00:30:45;44.17;;;22.37;;
16662;SDS011;8445;51.270;9.434;2022-12-18T00:33:10;44.73;;;22.47;;
16662;SDS011;8445;51.270;9.434;2022-12-18T00:35:36;43.87;;;21.93;;
16662;SDS011;8445;51.270;9.434;2022-12-18T00:38:01;44.53;;;23.23;;
16662;SDS011;8445;51.270;9.434;2022-12-18T00:40:26;42.07;;;21.17;;
16662;SDS011;8445;51.270;9.434;2022-12-18T00:42:52;41.50;;;22.33;;
16662;SDS011;8445;51.270;9.434;2022-12-18T00:45:24;39.80;;;21.53;;
16662;SDS011;8445;51.270;9.434;2022-12-18T00:47:51;46.50;;;22.67;;
16662;SDS011;8445;51.270;9.434;2022-12-18T00:50:17;46.07;;;22.43;;
16662;SDS011;8445;51.270;9.434;2022-12-18T00:52:43;44.40;;;21.70;;
16662;SDS011;8445;51.270;9.434;2022-12-18T00:55:08;39.80;;;21.07;;
16662;SDS011;8445;51.270;9.434;2022-12-18T00:57:34;43.37;;;21.50;;
16662;SDS011;8445;51.270;9.434;2022-12-18T00:59:59;42.13;;;21.17;;
16662;SDS011;8445;51.270;9.434;2022-12-18T01:02:25;37.77;;;21.37;;
16662;SDS011;8445;51.270;9.434;2022-12-18T01:04:50;45.47;;;21.23;;
16662;SDS011;8445;51.270;9.434;2022-12-18T01:07:18;37.60;;;20.83;;
16662;SDS011;8445;51.270;9.434;2022-12-18T01:09:43;42.03;;;22.77;;
16662;SDS011;8445;51.270;9.434;2022-12-18T01:12:09;41.07;;;21.13;;
16662;SDS011;8445;51.270;9.434;2022-12-18T01:14:34;41.90;;;22.10;;
16662;SDS011;8445;51.270;9.434;2022-12-18T01:17:01;41.43;;;21.93;;
16662;SDS011;8445;51.270;9.434;2022-12-18T01:19:31;41.23;;;22.00;;
16662;SDS011;8445;51.270;9.434;2022-12-18T01:21:57;39.23;;;21.67;;
16662;SDS011;8445;51.270;9.434;2022-12-18T01:24:24;41.33;;;22.63;;
16662;SDS011;8445;51.270;9.434;2022-12-18T01:26:50;36.60;;;21.77;;
16662;SDS011;8445;51.270;9.434;2022-12-18T01:29:16;42.73;;;21.37;;
16662;SDS011;8445;51.270;9.434;2022-12-18T01:31:41;40.20;;;21.20;;
16662;SDS011;8445;51.270;9.434;2022-12-18T01:34:07;43.83;;;21.33;;
16662;SDS011;8445;51.270;9.434;2022-12-18T01:36:34;41.57;;;21.67;;
16662;SDS011;8445;51.270;9.434;2022-12-18T01:39:05;48.70;;;22.10;;
16662;SDS011;8445;51.270;9.434;2022-12-18T01:41:32;40.03;;;20.60;;
16662;SDS011;8445;51.270;9.434;2022-12-18T01:47:21;37.23;;;20.43;;
16662;SDS011;8445;51.270;9.434;2022-12-18T01:49:58;38.17;;;20.33;;
16662;SDS011;8445;51.270;9.434;2022-12-18T01:52:27;42.73;;;21.90;;
16662;SDS011;8445;51.270;9.434;2022-12-18T01:54:54;40.07;;;21.67;;
16662;SDS011;8445;51.270;9.434;2022-12-18T01:57:20;44.57;;;20.20;;
16662;SDS011;8445;51.270;9.434;2022-12-18T01:59:49;47.20;;;23.07;;
16662;SDS011;8445;51.270;9.434;2022-12-18T02:02:18;40.47;;;22.33;;
16662;SDS011;8445;51.270;9.434;2022-12-18T02:04:45;37.37;;;22.07;;
16662;SDS011;8445;51.270;9.434;2022-12-18T02:10:09;40.93;;;22.13;;
16662;SDS011;8445;51.270;9.434;2022-12-18T02:12:53;46.57;;;23.37;;
16662;SDS011;8445;51.270;9.434;2022-12-18T02:15:31;42.87;;;22.97;;
16662;SDS011;8445;51.270;9.434;2022-12-18T02:18:19;46.40;;;24.77;;
16662;SDS011;8445;51.270;9.434;2022-12-18T02:20:50;45.53;;;24.10;;
16662;SDS011;8445;51.270;9.434;2022-12-18T02:26:14;47.03;;;24.70;;
16662;SDS011;8445;51.270;9.434;2022-12-18T02:28:45;43.00;;;22.97;;
16662;SDS011;8445;51.270;9.434;2022-12-18T02:31:15;43.20;;;24.20;;
16662;SDS011;8445;51.270;9.434;2022-12-18T02:33:50;45.23;;;23.00;;
16662;SDS011;8445;51.270;9.434;2022-12-18T02:36:22;44.97;;;23.53;;
16662;SDS011;8445;51.270;9.434;2022-12-18T02:38:51;41.83;;;24.03;;
16662;SDS011;8445;51.270;9.434;2022-12-18T02:41:18;46.10;;;23.47;;
16662;SDS011;8445;51.270;9.434;2022-12-18T02:43:58;45.57;;;24.63;;
16662;SDS011;8445;51.270;9.434;2022-12-18T02:46:29;41.83;;;23.70;;
16662;SDS011;8445;51.270;9.434;2022-12-18T02:49:44;41.20;;;23.67;;
16662;SDS011;8445;51.270;9.434;2022-12-18T02:55:16;35.37;;;20.33;;
16662;SDS011;8445;51.270;9.434;2022-12-18T02:58:05;39.60;;;22.97;;
16662;SDS011;8445;51.270;9.434;2022-12-18T03:01:03;34.90;;;20.07;;
16662;SDS011;8445;51.270;9.434;2022-12-18T03:03:38;37.50;;;21.43;;
16662;SDS011;8445;51.270;9.434;2022-12-18T03:06:26;34.83;;;21.07;;
16662;SDS011;8445;51.270;9.434;2022-12-18T03:08:58;36.37;;;20.87;;
16662;SDS011;8445;51.270;9.434;2022-12-18T03:11:28;33.93;;;19.90;;
16662;SDS011;8445;51.270;9.434;2022-12-18T03:14:17;40.90;;;21.67;;
16662;SDS011;8445;51.270;9.434;2022-12-18T03:16:49;36.53;;;20.30;;
16662;SDS011;8445;51.270;9.434;2022-12-18T03:19:19;41.10;;;22.63;;
16662;SDS011;8445;51.270;9.434;2022-12-18T03:21:51;34.50;;;20.43;;
16662;SDS011;8445;51.270;9.434;2022-12-18T03:24:22;36.27;;;19.90;;
16662;SDS011;8445;51.270;9.434;2022-12-18T03:26:51;34.67;;;20.87;;
16662;SDS011;8445;51.270;9.434;2022-12-18T03:29:25;36.70;;;21.30;;
16662;SDS011;8445;51.270;9.434;2022-12-18T03:32:04;35.80;;;20.10;;
16662;SDS011;8445;51.270;9.434;2022-12-18T03:34:37;38.37;;;21.03;;
16662;SDS011;8445;51.270;9.434;2022-12-18T03:37:07;29.27;;;18.60;;
16662;SDS011;8445;51.270;9.434;2022-12-18T03:39:33;35.70;;;19.73;;
16662;SDS011;8445;51.270;9.434;2022-12-18T03:47:45;33.27;;;19.90;;
16662;SDS011;8445;51.270;9.434;2022-12-18T03:53:00;38.30;;;19.97;;
16662;SDS011;8445;51.270;9.434;2022-12-18T03:55:47;35.83;;;19.60;;
16662;SDS011;8445;51.270;9.434;2022-12-18T03:58:15;31.03;;;18.70;;
16662;SDS011;8445;51.270;9.434;2022-12-18T04:00:58;34.03;;;18.77;;
16662;SDS011;8445;51.270;9.434;2022-12-18T04:03:27;33.00;;;18.33;;
16662;SDS011;8445;51.270;9.434;2022-12-18T04:05:56;33.07;;;19.27;;
16662;SDS011;8445;51.270;9.434;2022-12-18T04:08:26;41.37;;;25.20;;
16662;SDS011;8445;51.270;9.434;2022-12-18T04:11:03;36.03;;;20.53;;
16662;SDS011;8445;51.270;9.434;2022-12-18T04:13:29;34.57;;;20.20;;
16662;SDS011;8445;51.270;9.434;2022-12-18T04:16:00;31.47;;;18.93;;
16662;SDS011;8445;51.270;9.434;2022-12-18T04:18:26;37.17;;;20.57;;
16662;SDS011;8445;51.270;9.434;2022-12-18T04:20:52;36.40;;;20.20;;
16662;SDS011;8445;51.270;9.434;2022-12-18T04:23:18;36.13;;;19.27;;
16662;SDS011;8445;51.270;9.434;2022-12-18T04:25:44;32.43;;;18.63;;
16662;SDS011;8445;51.270;9.434;2022-12-18T04:28:15;37.53;;;19.43;;
16662;SDS011;8445;51.270;9.434;2022-12-18T04:30:45;29.07;;;17.77;;
16662;SDS011;8445;51.270;9.434;2022-12-18T04:33:16;35.17;;;19.93;;
16662;SDS011;8445;51.270;9.434;2022-12-18T04:35:45;31.90;;;18.33;;
16662;SDS011;8445;51.270;9.434;2022-12-18T04:38:18;31.83;;;19.13;;
16662;SDS011;8445;51.270;9.434;2022-12-18T04:40:54;30.10;;;19.23;;
16662;SDS011;8445;51.270;9.434;2022-12-18T04:43:26;30.23;;;18.60;;
16662;SDS011;8445;51.270;9.434;2022-12-18T04:46:06;31.57;;;19.17;;
16662;SDS011;8445;51.270;9.434;2022-12-18T04:48:36;29.40;;;17.73;;
16662;SDS011;8445;51.270;9.434;2022-12-18T04:51:04;32.07;;;20.13;;
16662;SDS011;8445;51.270;9.434;2022-12-18T04:53:33;32.63;;;20.13;;
16662;SDS011;8445;51.270;9.434;2022-12-18T04:56:05;30.00;;;17.43;;
16662;SDS011;8445;51.270;9.434;2022-12-18T04:58:37;31.37;;;18.17;;
16662;SDS011;8445;51.270;9.434;2022-12-18T05:01:14;31.50;;;19.83;;
16662;SDS011;8445;51.270;9.434;2022-12-18T05:03:45;30.43;;;18.43;;
16662;SDS011;8445;51.270;9.434;2022-12-18T05:06:14;29.87;;;18.17;;
16662;SDS011;8445;51.270;9.434;2022-12-18T05:08:50;28.73;;;18.23;;
16662;SDS011;8445;51.270;9.434;2022-12-18T05:11:20;31.00;;;18.53;;
16662;SDS011;8445;51.270;9.434;2022-12-18T05:13:49;33.07;;;18.43;;
16662;SDS011;8445;51.270;9.434;2022-12-18T05:16:29;27.87;;;16.43;;
16662;SDS011;8445;51.270;9.434;2022-12-18T05:18:59;29.40;;;19.07;;
16662;SDS011;8445;51.270;9.434;2022-12-18T05:21:29;28.30;;;17.47;;
16662;SDS011;8445;51.270;9.434;2022-12-18T05:23:59;31.27;;;19.00;;
16662;SDS011;8445;51.270;9.434;2022-12-18T05:26:29;35.33;;;22.30;;
16662;SDS011;8445;51.270;9.434;2022-12-18T05:28:59;39.57;;;21.00;;
16662;SDS011;8445;51.270;9.434;2022-12-18T05:31:33;35.30;;;19.63;;
16662;SDS011;8445;51.270;9.434;2022-12-18T05:34:04;34.57;;;18.83;;
16662;SDS011;8445;51.270;9.434;2022-12-18T05:36:35;31.63;;;18.40;;
16662;SDS011;8445;51.270;9.434;2022-12-18T05:39:11;33.40;;;18.67;;
16662;SDS011;8445;51.270;9.434;2022-12-18T05:41:41;32.47;;;18.70;;
16662;SDS011;8445;51.270;9.434;2022-12-18T05:44:10;32.17;;;18.93;;
16662;SDS011;8445;51.270;9.434;2022-12-18T05:46:39;28.30;;;19.20;;
16662;SDS011;8445;51.270;9.434;2022-12-18T05:49:09;32.80;;;17.90;;
16662;SDS011;8445;51.270;9.434;2022-12-18T05:51:34;35.50;;;20.83;;
16662;SDS011;8445;51.270;9.434;2022-12-18T05:54:00;34.67;;;18.60;;
16662;SDS011;8445;51.270;9.434;2022-12-18T05:56:26;28.67;;;17.33;;
16662;SDS011;8445;51.270;9.434;2022-12-18T05:58:52;28.70;;;16.13;;
16662;SDS011;8445;51.270;9.434;2022-12-18T06:01:20;29.13;;;18.80;;
16662;SDS011;8445;51.270;9.434;2022-12-18T06:03:49;31.07;;;17.13;;
16662;SDS011;8445;51.270;9.434;2022-12-18T06:06:19;27.47;;;17.33;;
16662;SDS011;8445;51.270;9.434;2022-12-18T06:08:47;25.87;;;17.27;;
16662;SDS011;8445;51.270;9.434;2022-12-18T06:11:15;34.43;;;22.67;;
16662;SDS011;8445;51.270;9.434;2022-12-18T06:13:42;33.03;;;17.47;;
16662;SDS011;8445;51.270;9.434;2022-12-18T06:16:08;34.70;;;17.80;;
16662;SDS011;8445;51.270;9.434;2022-12-18T06:18:33;31.10;;;16.73;;
16662;SDS011;8445;51.270;9.434;2022-12-18T06:21:02;26.57;;;17.47;;
16662;SDS011;8445;51.270;9.434;2022-12-18T06:23:28;29.37;;;17.33;;
16662;SDS011;8445;51.270;9.434;2022-12-18T06:25:53;28.33;;;18.67;;
16662;SDS011;8445;51.270;9.434;2022-12-18T06:28:19;36.43;;;21.40;;
16662;SDS011;8445;51.270;9.434;2022-12-18T06:30:45;32.87;;;18.50;;
16662;SDS011;8445;51.270;9.434;2022-12-18T06:33:11;33.10;;;19.50;;
16662;SDS011;8445;51.270;9.434;2022-12-18T06:35:37;29.03;;;17.53;;
16662;SDS011;8445;51.270;9.434;2022-12-18T06:38:03;34.03;;;19.23;;
16662;SDS011;8445;51.270;9.434;2022-12-18T06:40:28;29.13;;;18.10;;
16662;SDS011;8445;51.270;9.434;2022-12-18T06:42:54;28.37;;;17.87;;
16662;SDS011;8445;51.270;9.434;2022-12-18T06:45:20;27.63;;;17.70;;
16662;SDS011;8445;51.270;9.434;2022-12-18T06:47:45;32.27;;;21.10;;
16662;SDS011;8445;51.270;9.434;2022-12-18T06:50:11;35.13;;;22.00;;
16662;SDS011;8445;51.270;9.434;2022-12-18T06:52:37;32.20;;;18.47;;
16662;SDS011;8445;51.270;9.434;2022-12-18T06:55:04;33.57;;;18.70;;
16662;SDS011;8445;51.270;9.434;2022-12-18T06:57:30;34.10;;;20.73;;
16662;SDS011;8445;51.270;9.434;2022-12-18T06:59:55;31.50;;;18.63;;
16662;SDS011;8445;51.270;9.434;2022-12-18T07:02:21;34.00;;;19.77;;
16662;SDS011;8445;51.270;9.434;2022-12-18T07:04:46;32.70;;;19.63;;
16662;SDS011;8445;51.270;9.434;2022-12-18T07:07:14;33.27;;;19.30;;
16662;SDS011;8445;51.270;9.434;2022-12-18T07:09:40;32.10;;;19.07;;
16662;SDS011;8445;51.270;9.434;2022-12-18T07:12:05;35.27;;;20.77;;
16662;SDS011;8445;51.270;9.434;2022-12-18T07:14:31;86.50;;;28.60;;
16662;SDS011;8445;51.270;9.434;2022-12-18T07:16:57;97.53;;;31.63;;
16662;SDS011;8445;51.270;9.434;2022-12-18T07:19:22;105.33;;;35.40;;
16662;SDS011;8445;51.270;9.434;2022-12-18T07:21:51;100.63;;;40.53;;
16662;SDS011;8445;51.270;9.434;2022-12-18T07:24:16;65.67;;;32.17;;
16662;SDS011;8445;51.270;9.434;2022-12-18T07:26:45;69.17;;;28.57;;
16662;SDS011;8445;51.270;9.434;2022-12-18T07:29:11;53.30;;;24.53;;
16662;SDS011;8445;51.270;9.434;2022-12-18T07:31:36;44.17;;;22.80;;
16662;SDS011;8445;51.270;9.434;2022-12-18T07:34:02;41.63;;;22.33;;
16662;SDS011;8445;51.270;9.434;2022-12-18T07:36:27;41.27;;;23.80;;
16662;SDS011;8445;51.270;9.434;2022-12-18T07:38:52;39.30;;;19.87;;
16662;SDS011;8445;51.270;9.434;2022-12-18T07:41:18;37.80;;;19.57;;
16662;SDS011;8445;51.270;9.434;2022-12-18T07:43:44;34.10;;;19.80;;
16662;SDS011;8445;51.270;9.434;2022-12-18T07:46:10;35.27;;;19.33;;
16662;SDS011;8445;51.270;9.434;2022-12-18T07:48:38;36.87;;;19.23;;
16662;SDS011;8445;51.270;9.434;2022-12-18T07:51:05;41.80;;;19.93;;
16662;SDS011;8445;51.270;9.434;2022-12-18T07:53:31;31.40;;;18.93;;
16662;SDS011;8445;51.270;9.434;2022-12-18T07:55:58;33.43;;;18.80;;
16662;SDS011;8445;51.270;9.434;2022-12-18T07:58:25;41.57;;;21.37;;
16662;SDS011;8445;51.270;9.434;2022-12-18T08:00:50;86.40;;;41.13;;
16662;SDS011;8445;51.270;9.434;2022-12-18T08:03:17;56.40;;;26.10;;
16662;SDS011;8445;51.270;9.434;2022-12-18T08:05:43;42.07;;;25.40;;
16662;SDS011;8445;51.270;9.434;2022-12-18T08:08:08;41.07;;;24.67;;
16662;SDS011;8445;51.270;9.434;2022-12-18T08:10:34;43.33;;;23.40;;
16662;SDS011;8445;51.270;9.434;2022-12-18T08:12:59;39.43;;;23.57;;
16662;SDS011;8445;51.270;9.434;2022-12-18T08:15:25;40.83;;;23.03;;
16662;SDS011;8445;51.270;9.434;2022-12-18T08:17:50;43.53;;;24.87;;
16662;SDS011;8445;51.270;9.434;2022-12-18T08:20:15;37.87;;;22.40;;
16662;SDS011;8445;51.270;9.434;2022-12-18T08:22:43;40.40;;;22.27;;
16662;SDS011;8445;51.270;9.434;2022-12-18T08:25:12;47.67;;;24.67;;
16662;SDS011;8445;51.270;9.434;2022-12-18T08:27:38;47.23;;;28.17;;
16662;SDS011;8445;51.270;9.434;2022-12-18T08:30:04;42.60;;;24.03;;
16662;SDS011;8445;51.270;9.434;2022-12-18T08:32:30;46.87;;;25.63;;
16662;SDS011;8445;51.270;9.434;2022-12-18T08:34:55;37.40;;;22.33;;
16662;SDS011;8445;51.270;9.434;2022-12-18T08:37:21;36.63;;;22.07;;
16662;SDS011;8445;51.270;9.434;2022-12-18T08:39:49;37.67;;;22.43;;
16662;SDS011;8445;51.270;9.434;2022-12-18T08:42:15;41.57;;;22.30;;
16662;SDS011;8445;51.270;9.434;2022-12-18T08:44:59;40.77;;;22.37;;
16662;SDS011;8445;51.270;9.434;2022-12-18T08:47:24;38.73;;;22.43;;
16662;SDS011;8445;51.270;9.434;2022-12-18T08:49:52;39.33;;;22.13;;
16662;SDS011;8445;51.270;9.434;2022-12-18T08:52:18;41.67;;;22.53;;
16662;SDS011;8445;51.270;9.434;2022-12-18T08:54:43;47.70;;;24.47;;
16662;SDS011;8445;51.270;9.434;2022-12-18T08:57:09;39.97;;;23.00;;
16662;SDS011;8445;51.270;9.434;2022-12-18T08:59:34;40.77;;;22.83;;
16662;SDS011;8445;51.270;9.434;2022-12-18T09:02:00;42.93;;;23.73;;
16662;SDS011;8445;51.270;9.434;2022-12-18T09:04:26;39.60;;;23.43;;
16662;SDS011;8445;51.270;9.434;2022-12-18T09:06:51;36.27;;;22.03;;
16662;SDS011;8445;51.270;9.434;2022-12-18T09:09:19;40.40;;;23.07;;
16662;SDS011;8445;51.270;9.434;2022-12-18T09:11:45;46.37;;;24.90;;
16662;SDS011;8445;51.270;9.434;2022-12-18T09:14:10;45.83;;;26.23;;
16662;SDS011;8445;51.270;9.434;2022-12-18T09:16:36;40.17;;;23.70;;
16662;SDS011;8445;51.270;9.434;2022-12-18T09:19:02;38.27;;;23.97;;
16662;SDS011;8445;51.270;9.434;2022-12-18T09:21:33;38.83;;;23.93;;
16662;SDS011;8445;51.270;9.434;2022-12-18T09:24:03;44.20;;;25.13;;
16662;SDS011;8445;51.270;9.434;2022-12-18T09:26:29;45.70;;;26.50;;
16662;SDS011;8445;51.270;9.434;2022-12-18T09:28:55;44.43;;;25.93;;
16662;SDS011;8445;51.270;9.434;2022-12-18T09:31:21;36.07;;;22.30;;
16662;SDS011;8445;51.270;9.434;2022-12-18T09:33:51;41.10;;;23.87;;
16662;SDS011;8445;51.270;9.434;2022-12-18T09:36:17;43.53;;;25.93;;
16662;SDS011;8445;51.270;9.434;2022-12-18T09:38:43;45.73;;;26.43;;
16662;SDS011;8445;51.270;9.434;2022-12-18T09:44:13;43.53;;;26.03;;
16662;SDS011;8445;51.270;9.434;2022-12-18T09:46:46;39.70;;;25.43;;
16662;SDS011;8445;51.270;9.434;2022-12-18T09:49:17;38.60;;;24.80;;
16662;SDS011;8445;51.270;9.434;2022-12-18T09:51:49;39.63;;;24.60;;
16662;SDS011;8445;51.270;9.434;2022-12-18T09:54:23;40.87;;;23.47;;
16662;SDS011;8445;51.270;9.434;2022-12-18T09:56:54;36.00;;;22.13;;
16662;SDS011;8445;51.270;9.434;2022-12-18T09:59:34;39.73;;;23.80;;
16662;SDS011;8445;51.270;9.434;2022-12-18T10:02:14;35.47;;;22.03;;
16662;SDS011;8445;51.270;9.434;2022-12-18T10:04:42;36.93;;;22.37;;
16662;SDS011;8445;51.270;9.434;2022-12-18T10:07:16;37.33;;;23.27;;
16662;SDS011;8445;51.270;9.434;2022-12-18T10:12:27;36.10;;;22.63;;
16662;SDS011;8445;51.270;9.434;2022-12-18T10:20:46;67.47;;;36.00;;
16662;SDS011;8445;51.270;9.434;2022-12-18T10:23:18;54.90;;;31.50;;
16662;SDS011;8445;51.270;9.434;2022-12-18T10:25:53;45.70;;;25.43;;
16662;SDS011;8445;51.270;9.434;2022-12-18T10:28:26;33.30;;;22.50;;
16662;SDS011;8445;51.270;9.434;2022-12-18T10:30:54;43.80;;;25.57;;
16662;SDS011;8445;51.270;9.434;2022-12-18T10:33:21;47.70;;;25.90;;
16662;SDS011;8445;51.270;9.434;2022-12-18T10:35:48;48.10;;;25.77;;
16662;SDS011;8445;51.270;9.434;2022-12-18T10:41:03;31.90;;;17.83;;
16662;SDS011;8445;51.270;9.434;2022-12-18T10:48:38;24.30;;;14.77;;
16662;SDS011;8445;51.270;9.434;2022-12-18T10:51:21;23.17;;;13.90;;
16662;SDS011;8445;51.270;9.434;2022-12-18T10:53:57;22.23;;;13.73;;
16662;SDS011;8445;51.270;9.434;2022-12-18T10:56:43;17.77;;;11.27;;
16662;SDS011;8445;51.270;9.434;2022-12-18T10:59:09;17.93;;;12.37;;
16662;SDS011;8445;51.270;9.434;2022-12-18T11:01:58;21.23;;;14.07;;
16662;SDS011;8445;51.270;9.434;2022-12-18T11:04:24;30.53;;;18.43;;
16662;SDS011;8445;51.270;9.434;2022-12-18T11:06:53;42.33;;;25.17;;
16662;SDS011;8445;51.270;9.434;2022-12-18T11:09:20;42.77;;;25.20;;
16662;SDS011;8445;51.270;9.434;2022-12-18T11:11:52;45.97;;;26.57;;
16662;SDS011;8445;51.270;9.434;2022-12-18T11:14:27;42.43;;;25.33;;
16662;SDS011;8445;51.270;9.434;2022-12-18T11:16:56;36.33;;;22.10;;
16662;SDS011;8445;51.270;9.434;2022-12-18T11:22:20;28.40;;;18.07;;
16662;SDS011;8445;51.270;9.434;2022-12-18T11:25:01;24.43;;;15.17;;
16662;SDS011;8445;51.270;9.434;2022-12-18T11:27:27;26.13;;;15.53;;
16662;SDS011;8445;51.270;9.434;2022-12-18T11:30:06;25.50;;;14.73;;
16662;SDS011;8445;51.270;9.434;2022-12-18T11:33:19;22.63;;;13.07;;
16662;SDS011;8445;51.270;9.434;2022-12-18T11:35:57;22.73;;;14.17;;
16662;SDS011;8445;51.270;9.434;2022-12-18T11:38:39;18.63;;;12.83;;
16662;SDS011;8445;51.270;9.434;2022-12-18T11:43:50;22.57;;;13.50;;
16662;SDS011;8445;51.270;9.434;2022-12-18T11:46:24;19.80;;;12.60;;
16662;SDS011;8445;51.270;9.434;2022-12-18T11:49:02;20.53;;;11.90;;
16662;SDS011;8445;51.270;9.434;2022-12-18T11:51:42;19.83;;;11.90;;
16662;SDS011;8445;51.270;9.434;2022-12-18T11:54:12;19.93;;;11.83;;
16662;SDS011;8445;51.270;9.434;2022-12-18T11:56:43;19.83;;;11.77;;
16662;SDS011;8445;51.270;9.434;2022-12-18T12:05:03;18.17;;;12.27;;
16662;SDS011;8445;51.270;9.434;2022-12-18T12:07:48;17.13;;;11.90;;
16662;SDS011;8445;51.270;9.434;2022-12-18T12:10:46;17.30;;;11.90;;
16662;SDS011;8445;51.270;9.434;2022-12-18T12:13:33;17.20;;;11.37;;
16662;SDS011;8445;51.270;9.434;2022-12-18T12:18:56;20.57;;;12.83;;
16662;SDS011;8445;51.270;9.434;2022-12-18T12:21:41;21.43;;;11.63;;
16662;SDS011;8445;51.270;9.434;2022-12-18T12:27:08;16.70;;;11.47;;
16662;SDS011;8445;51.270;9.434;2022-12-18T12:30:07;18.87;;;12.03;;
16662;SDS011;8445;51.270;9.434;2022-12-18T12:35:11;19.00;;;10.60;;
16662;SDS011;8445;51.270;9.434;2022-12-18T12:41:16;17.37;;;11.10;;
16662;SDS011;8445;51.270;9.434;2022-12-18T12:43:58;14.93;;;10.23;;
16662;SDS011;8445;51.270;9.434;2022-12-18T12:46:29;16.00;;;10.97;;
16662;SDS011;8445;51.270;9.434;2022-12-18T12:49:04;19.03;;;11.63;;
16662;SDS011;8445;51.270;9.434;2022-12-18T12:51:40;17.63;;;11.20;;
16662;SDS011;8445;51.270;9.434;2022-12-18T12:54:11;16.27;;;11.07;;
16662;SDS011;8445;51.270;9.434;2022-12-18T12:56:48;20.03;;;12.03;;
16662;SDS011;8445;51.270;9.434;2022-12-18T13:15:30;17.10;;;10.73;;
16662;SDS011;8445;51.270;9.434;2022-12-18T13:18:06;14.83;;;10.57;;
16662;SDS011;8445;51.270;9.434;2022-12-18T13:25:56;18.03;;;11.83;;
16662;SDS011;8445;51.270;9.434;2022-12-18T13:31:11;17.47;;;11.27;;
16662;SDS011;8445;51.270;9.434;2022-12-18T13:33:39;17.07;;;11.17;;
16662;SDS011;8445;51.270;9.434;2022-12-18T13:36:25;16.80;;;12.10;;
16662;SDS011;8445;51.270;9.434;2022-12-18T13:44:36;19.60;;;13.27;;
16662;SDS011;8445;51.270;9.434;2022-12-18T13:47:05;21.17;;;12.17;;
16662;SDS011;8445;51.270;9.434;2022-12-18T13:49:53;19.43;;;13.00;;
16662;SDS011;8445;51.270;9.434;2022-12-18T13:52:26;19.73;;;12.83;;
16662;SDS011;8445;51.270;9.434;2022-12-18T13:54:55;19.47;;;13.30;;
16662;SDS011;8445;51.270;9.434;2022-12-18T13:57:25;20.70;;;13.60;;
16662;SDS011;8445;51.270;9.434;2022-12-18T13:59:59;18.87;;;13.13;;
16662;SDS011;8445;51.270;9.434;2022-12-18T14:02:49;21.13;;;13.00;;
16662;SDS011;8445;51.270;9.434;2022-12-18T14:05:25;17.87;;;12.43;;
16662;SDS011;8445;51.270;9.434;2022-12-18T14:08:05;21.07;;;12.60;;
16662;SDS011;8445;51.270;9.434;2022-12-18T14:10:35;20.90;;;13.07;;
16662;SDS011;8445;51.270;9.434;2022-12-18T14:13:05;20.30;;;13.17;;
16662;SDS011;8445;51.270;9.434;2022-12-18T14:15:34;25.23;;;13.80;;
16662;SDS011;8445;51.270;9.434;2022-12-18T14:20:41;23.43;;;13.53;;
16662;SDS011;8445;51.270;9.434;2022-12-18T14:28:45;23.50;;;13.97;;
16662;SDS011;8445;51.270;9.434;2022-12-18T14:31:27;20.80;;;13.60;;
16662;SDS011;8445;51.270;9.434;2022-12-18T14:33:55;24.20;;;14.63;;
16662;SDS011;8445;51.270;9.434;2022-12-18T14:36:21;24.03;;;15.13;;
16662;SDS011;8445;51.270;9.434;2022-12-18T14:38:50;23.43;;;14.83;;
16662;SDS011;8445;51.270;9.434;2022-12-18T14:41:19;24.60;;;15.07;;
16662;SDS011;8445;51.270;9.434;2022-12-18T14:43:47;24.33;;;15.10;;
16662;SDS011;8445;51.270;9.434;2022-12-18T14:51:48;22.47;;;15.10;;
16662;SDS011;8445;51.270;9.434;2022-12-18T14:54:16;22.33;;;14.83;;
16662;SDS011;8445;51.270;9.434;2022-12-18T14:56:44;22.97;;;14.90;;
16662;SDS011;8445;51.270;9.434;2022-12-18T14:59:17;25.17;;;15.23;;
16662;SDS011;8445;51.270;9.434;2022-12-18T15:04:34;21.83;;;13.63;;
16662;SDS011;8445;51.270;9.434;2022-12-18T15:09:36;20.27;;;13.47;;
16662;SDS011;8445;51.270;9.434;2022-12-18T15:12:03;20.43;;;13.57;;
16662;SDS011;8445;51.270;9.434;2022-12-18T15:16:55;20.13;;;12.20;;
16662;SDS011;8445;51.270;9.434;2022-12-18T15:19:22;22.00;;;13.10;;
16662;SDS011;8445;51.270;9.434;2022-12-18T15:21:59;20.97;;;13.20;;
16662;SDS011;8445;51.270;9.434;2022-12-18T15:24:27;21.30;;;12.80;;
16662;SDS011;8445;51.270;9.434;2022-12-18T15:26:56;24.20;;;14.37;;
16662;SDS011;8445;51.270;9.434;2022-12-18T15:29:22;20.77;;;13.00;;
16662;SDS011;8445;51.270;9.434;2022-12-18T15:34:27;23.07;;;14.60;;
16662;SDS011;8445;51.270;9.434;2022-12-18T15:36:53;22.20;;;15.10;;
16662;SDS011;8445;51.270;9.434;2022-12-18T15:39:18;25.77;;;15.77;;
16662;SDS011;8445;51.270;9.434;2022-12-18T15:41:44;25.07;;;15.07;;
16662;SDS011;8445;51.270;9.434;2022-12-18T15:44:30;25.90;;;16.10;;
16662;SDS011;8445;51.270;9.434;2022-12-18T15:46:55;26.10;;;15.67;;
16662;SDS011;8445;51.270;9.434;2022-12-18T15:49:21;29.03;;;16.60;;
16662;SDS011;8445;51.270;9.434;2022-12-18T15:51:49;28.13;;;17.23;;
16662;SDS011;8445;51.270;9.434;2022-12-18T15:54:18;26.63;;;16.77;;
16662;SDS011;8445;51.270;9.434;2022-12-18T15:57:03;30.50;;;17.43;;
16662;SDS011;8445;51.270;9.434;2022-12-18T15:59:47;30.40;;;16.30;;
16662;SDS011;8445;51.270;9.434;2022-12-18T16:02:14;29.87;;;17.10;;
16662;SDS011;8445;51.270;9.434;2022-12-18T16:04:42;30.40;;;18.40;;
16662;SDS011;8445;51.270;9.434;2022-12-18T16:07:08;30.43;;;18.13;;
16662;SDS011;8445;51.270;9.434;2022-12-18T16:09:34;35.47;;;18.67;;
16662;SDS011;8445;51.270;9.434;2022-12-18T16:12:00;26.93;;;16.90;;
16662;SDS011;8445;51.270;9.434;2022-12-18T16:14:26;31.20;;;18.93;;
16662;SDS011;8445;51.270;9.434;2022-12-18T16:16:56;28.27;;;17.83;;
16662;SDS011;8445;51.270;9.434;2022-12-18T16:19:24;29.43;;;18.77;;
16662;SDS011;8445;51.270;9.434;2022-12-18T16:21:51;28.77;;;17.73;;
16662;SDS011;8445;51.270;9.434;2022-12-18T16:24:19;33.63;;;18.57;;
16662;SDS011;8445;51.270;9.434;2022-12-18T16:26:50;32.67;;;19.37;;
16662;SDS011;8445;51.270;9.434;2022-12-18T16:29:19;30.23;;;17.83;;
16662;SDS011;8445;51.270;9.434;2022-12-18T16:31:55;34.30;;;20.43;;
16662;SDS011;8445;51.270;9.434;2022-12-18T16:34:26;34.57;;;19.73;;
16662;SDS011;8445;51.270;9.434;2022-12-18T16:36:57;30.20;;;18.83;;
16662;SDS011;8445;51.270;9.434;2022-12-18T16:39:24;29.60;;;19.33;;
16662;SDS011;8445;51.270;9.434;2022-12-18T16:41:50;35.43;;;20.07;;
16662;SDS011;8445;51.270;9.434;2022-12-18T16:44:16;31.90;;;19.37;;
16662;SDS011;8445;51.270;9.434;2022-12-18T16:46:42;37.87;;;20.20;;
16662;SDS011;8445;51.270;9.434;2022-12-18T16:49:14;34.00;;;21.00;;